sensor_id;sensor_type;location;lat;lon;timestamp;temperature;humidity
63435;DHT22;68814;50.872;5.306;2023-12-20T00:01:35;8.20;99.90
63435;DHT22;68814;50.872;5.306;2023-12-20T00:04:02;8.10;99.90
63435;DHT22;68814;50.872;5.306;2023-12-20T00:06:27;8.10;99.90
63435;DHT22;68814;50.872;5.306;2023-12-20T00:08:53;8.00;99.90
63435;DHT22;68814;50.872;5.306;2023-12-20T00:11:19;8.00;99.90
63435;DHT22;68814;50.872;5.306;2023-12-20T00:13:44;7.90;99.90
63435;DHT22;68814;50.872;5.306;2023-12-20T00:16:10;7.70;99.90
63435;DHT22;68814;50.872;5.306;2023-12-20T00:18:36;7.70;99.90
63435;DHT22;68814;50.872;5.306;2023-12-20T00:21:01;7.70;99.90
63435;DHT22;68814;50.872;5.306;2023-12-20T00:23:27;7.50;99.90
63435;DHT22;68814;50.872;5.306;2023-12-20T00:25:52;7.50;99.90
63435;DHT22;68814;50.872;5.306;2023-12-20T00:28:18;7.40;99.90
63435;DHT22;68814;50.872;5.306;2023-12-20T00:30:44;7.40;99.90
63435;DHT22;68814;50.872;5.306;2023-12-20T00:33:09;7.40;99.90
63435;DHT22;68814;50.872;5.306;2023-12-20T00:35:35;7.30;99.90
63435;DHT22;68814;50.872;5.306;2023-12-20T00:38:01;7.20;99.90
63435;DHT22;68814;50.872;5.306;2023-12-20T00:40:26;7.20;99.90
63435;DHT22;68814;50.872;5.306;2023-12-20T00:42:52;7.10;99.90
63435;DHT22;68814;50.872;5.306;2023-12-20T00:45:17;7.10;99.90
63435;DHT22;68814;50.872;5.306;2023-12-20T00:47:43;7.10;99.90
63435;DHT22;68814;50.872;5.306;2023-12-20T00:50:09;7.10;99.90
63435;DHT22;68814;50.872;5.306;2023-12-20T00:52:35;7.10;99.90
63435;DHT22;68814;50.872;5.306;2023-12-20T00:55:00;7.10;99.90
63435;DHT22;68814;50.872;5.306;2023-12-20T00:57:28;7.10;99.90
63435;DHT22;68814;50.872;5.306;2023-12-20T00:59:56;7.10;99.90
63435;DHT22;68814;50.872;5.306;2023-12-20T01:02:22;7.10;99.90
63435;DHT22;68814;50.872;5.306;2023-12-20T01:04:47;7.00;99.90
63435;DHT22;68814;50.872;5.306;2023-12-20T01:07:13;7.00;99.90
63435;DHT22;68814;50.872;5.306;2023-12-20T01:09:41;7.00;99.90
63435;DHT22;68814;50.872;5.306;2023-12-20T01:12:06;7.00;99.90
63435;DHT22;68814;50.872;5.306;2023-12-20T01:14:32;7.00;99.90
63435;DHT22;68814;50.872;5.306;2023-12-20T01:16:59;7.00;99.90
63435;DHT22;68814;50.872;5.306;2023-12-20T01:19:25;7.00;99.90
63435;DHT22;68814;50.872;5.306;2023-12-20T01:21:50;7.10;99.90
63435;DHT22;68814;50.872;5.306;2023-12-20T01:24:16;7.10;99.90
63435;DHT22;68814;50.872;5.306;2023-12-20T01:26:41;7.10;99.90
63435;DHT22;68814;50.872;5.306;2023-12-20T01:29:07;7.10;99.90
63435;DHT22;68814;50.872;5.306;2023-12-20T01:31:33;7.10;99.90
63435;DHT22;68814;50.872;5.306;2023-12-20T01:33:58;7.10;99.90
63435;DHT22;68814;50.872;5.306;2023-12-20T01:36:24;7.20;99.90
63435;DHT22;68814;50.872;5.306;2023-12-20T01:38:50;7.20;99.90
63435;DHT22;68814;50.872;5.306;2023-12-20T01:41:15;7.20;99.90
63435;DHT22;68814;50.872;5.306;2023-12-20T01:43:41;7.10;99.90
63435;DHT22;68814;50.872;5.306;2023-12-20T01:46:07;7.10;99.90
63435;DHT22;68814;50.872;5.306;2023-12-20T01:48:33;7.10;99.90
63435;DHT22;68814;50.872;5.306;2023-12-20T01:50:59;7.00;99.90
63435;DHT22;68814;50.872;5.306;2023-12-20T01:53:27;7.00;99.90
63435;DHT22;68814;50.872;5.306;2023-12-20T01:55:55;7.00;99.90
63435;DHT22;68814;50.872;5.306;2023-12-20T01:58:22;7.00;99.90
63435;DHT22;68814;50.872;5.306;2023-12-20T02:00:49;7.00;99.90
63435;DHT22;68814;50.872;5.306;2023-12-20T02:03:18;6.90;99.90
63435;DHT22;68814;50.872;5.306;2023-12-20T02:05:44;6.90;99.90
63435;DHT22;68814;50.872;5.306;2023-12-20T02:08:11;6.90;99.90
63435;DHT22;68814;50.872;5.306;2023-12-20T02:10:37;7.00;99.90
63435;DHT22;68814;50.872;5.306;2023-12-20T02:13:03;6.90;99.90
63435;DHT22;68814;50.872;5.306;2023-12-20T02:15:29;6.90;99.90
63435;DHT22;68814;50.872;5.306;2023-12-20T02:17:55;7.00;99.90
63435;DHT22;68814;50.872;5.306;2023-12-20T02:20:21;7.00;99.90
63435;DHT22;68814;50.872;5.306;2023-12-20T02:22:47;7.10;99.90
63435;DHT22;68814;50.872;5.306;2023-12-20T02:25:13;7.00;99.90
63435;DHT22;68814;50.872;5.306;2023-12-20T02:27:39;7.10;99.90
63435;DHT22;68814;50.872;5.306;2023-12-20T02:30:08;7.00;99.90
63435;DHT22;68814;50.872;5.306;2023-12-20T02:32:34;7.10;99.90
63435;DHT22;68814;50.872;5.306;2023-12-20T02:35:00;7.10;99.90
63435;DHT22;68814;50.872;5.306;2023-12-20T02:37:26;7.10;99.90
63435;DHT22;68814;50.872;5.306;2023-12-20T02:39:51;7.20;99.90
63435;DHT22;68814;50.872;5.306;2023-12-20T02:42:17;7.10;99.90
63435;DHT22;68814;50.872;5.306;2023-12-20T02:44:42;7.10;99.90
63435;DHT22;68814;50.872;5.306;2023-12-20T02:47:08;7.10;99.90
63435;DHT22;68814;50.872;5.306;2023-12-20T02:49:34;7.10;99.90
63435;DHT22;68814;50.872;5.306;2023-12-20T02:51:59;7.10;99.90
63435;DHT22;68814;50.872;5.306;2023-12-20T02:54:25;7.10;99.90
63435;DHT22;68814;50.872;5.306;2023-12-20T02:56:51;7.00;99.90
63435;DHT22;68814;50.872;5.306;2023-12-20T02:59:21;6.90;99.90
63435;DHT22;68814;50.872;5.306;2023-12-20T03:01:47;6.90;99.90
63435;DHT22;68814;50.872;5.306;2023-12-20T03:04:13;6.90;99.90
63435;DHT22;68814;50.872;5.306;2023-12-20T03:06:38;6.90;99.90
63435;DHT22;68814;50.872;5.306;2023-12-20T03:09:04;7.00;99.90
63435;DHT22;68814;50.872;5.306;2023-12-20T03:11:30;6.90;99.90
63435;DHT22;68814;50.872;5.306;2023-12-20T03:13:57;6.90;99.90
63435;DHT22;68814;50.872;5.306;2023-12-20T03:16:23;6.90;99.90
63435;DHT22;68814;50.872;5.306;2023-12-20T03:18:48;6.90;99.90
63435;DHT22;68814;50.872;5.306;2023-12-20T03:21:14;6.90;99.90
63435;DHT22;68814;50.872;5.306;2023-12-20T03:23:43;7.00;99.90
63435;DHT22;68814;50.872;5.306;2023-12-20T03:26:11;7.00;99.90
63435;DHT22;68814;50.872;5.306;2023-12-20T03:28:37;7.00;99.90
63435;DHT22;68814;50.872;5.306;2023-12-20T03:31:03;7.00;99.90
63435;DHT22;68814;50.872;5.306;2023-12-20T03:33:29;7.00;99.90
63435;DHT22;68814;50.872;5.306;2023-12-20T03:35:55;7.00;99.90
63435;DHT22;68814;50.872;5.306;2023-12-20T03:38:21;7.00;99.90
63435;DHT22;68814;50.872;5.306;2023-12-20T03:40:49;7.00;99.90
63435;DHT22;68814;50.872;5.306;2023-12-20T03:43:15;7.00;99.90
63435;DHT22;68814;50.872;5.306;2023-12-20T03:45:42;6.90;99.90
63435;DHT22;68814;50.872;5.306;2023-12-20T03:48:08;6.90;99.90
63435;DHT22;68814;50.872;5.306;2023-12-20T03:50:34;6.90;99.90
63435;DHT22;68814;50.872;5.306;2023-12-20T03:53:00;6.90;99.90
63435;DHT22;68814;50.872;5.306;2023-12-20T03:55:26;6.90;99.90
63435;DHT22;68814;50.872;5.306;2023-12-20T03:57:51;6.90;99.90
63435;DHT22;68814;50.872;5.306;2023-12-20T04:00:17;6.90;99.90
63435;DHT22;68814;50.872;5.306;2023-12-20T04:02:43;6.90;99.90
63435;DHT22;68814;50.872;5.306;2023-12-20T04:05:09;6.90;99.90
63435;DHT22;68814;50.872;5.306;2023-12-20T04:07:36;7.00;99.90
63435;DHT22;68814;50.872;5.306;2023-12-20T04:10:02;7.00;99.90
63435;DHT22;68814;50.872;5.306;2023-12-20T04:12:29;7.00;99.90
63435;DHT22;68814;50.872;5.306;2023-12-20T04:14:54;7.10;99.90
63435;DHT22;68814;50.872;5.306;2023-12-20T04:17:20;7.00;99.90
63435;DHT22;68814;50.872;5.306;2023-12-20T04:19:48;7.10;99.90
63435;DHT22;68814;50.872;5.306;2023-12-20T04:22:14;7.10;99.90
63435;DHT22;68814;50.872;5.306;2023-12-20T04:24:39;7.10;99.90
63435;DHT22;68814;50.872;5.306;2023-12-20T04:27:07;7.10;99.90
63435;DHT22;68814;50.872;5.306;2023-12-20T04:29:33;7.10;99.90
63435;DHT22;68814;50.872;5.306;2023-12-20T04:31:59;7.30;99.90
63435;DHT22;68814;50.872;5.306;2023-12-20T04:34:25;7.30;99.90
63435;DHT22;68814;50.872;5.306;2023-12-20T04:36:51;7.30;99.90
63435;DHT22;68814;50.872;5.306;2023-12-20T04:39:17;7.30;99.90
63435;DHT22;68814;50.872;5.306;2023-12-20T04:41:43;7.30;99.90
63435;DHT22;68814;50.872;5.306;2023-12-20T04:44:08;7.30;99.90
63435;DHT22;68814;50.872;5.306;2023-12-20T04:46:34;7.40;99.90
63435;DHT22;68814;50.872;5.306;2023-12-20T04:49:00;7.40;99.90
63435;DHT22;68814;50.872;5.306;2023-12-20T04:51:27;7.40;99.90
63435;DHT22;68814;50.872;5.306;2023-12-20T04:53:52;7.50;99.90
63435;DHT22;68814;50.872;5.306;2023-12-20T04:56:20;7.50;99.90
63435;DHT22;68814;50.872;5.306;2023-12-20T04:58:46;7.50;99.90
63435;DHT22;68814;50.872;5.306;2023-12-20T05:01:12;7.60;99.90
63435;DHT22;68814;50.872;5.306;2023-12-20T05:03:38;7.50;99.90
63435;DHT22;68814;50.872;5.306;2023-12-20T05:06:03;7.40;99.90
63435;DHT22;68814;50.872;5.306;2023-12-20T05:08:29;7.40;99.90
63435;DHT22;68814;50.872;5.306;2023-12-20T05:10:55;7.30;99.90
63435;DHT22;68814;50.872;5.306;2023-12-20T05:13:21;7.30;99.90
63435;DHT22;68814;50.872;5.306;2023-12-20T05:15:47;7.40;99.90
63435;DHT22;68814;50.872;5.306;2023-12-20T05:18:13;7.40;99.90
63435;DHT22;68814;50.872;5.306;2023-12-20T05:20:39;7.30;99.90
63435;DHT22;68814;50.872;5.306;2023-12-20T05:23:05;7.20;99.90
63435;DHT22;68814;50.872;5.306;2023-12-20T05:25:30;7.20;99.90
63435;DHT22;68814;50.872;5.306;2023-12-20T05:27:56;7.30;99.90
63435;DHT22;68814;50.872;5.306;2023-12-20T05:30:22;7.20;99.90
63435;DHT22;68814;50.872;5.306;2023-12-20T05:32:48;7.20;99.90
63435;DHT22;68814;50.872;5.306;2023-12-20T05:35:13;7.10;99.90
63435;DHT22;68814;50.872;5.306;2023-12-20T05:37:39;7.00;99.90
63435;DHT22;68814;50.872;5.306;2023-12-20T05:40:05;6.90;99.90
63435;DHT22;68814;50.872;5.306;2023-12-20T05:42:31;6.80;99.90
63435;DHT22;68814;50.872;5.306;2023-12-20T05:44:59;6.80;99.90
63435;DHT22;68814;50.872;5.306;2023-12-20T05:47:27;6.80;99.90
63435;DHT22;68814;50.872;5.306;2023-12-20T05:49:53;6.80;99.90
63435;DHT22;68814;50.872;5.306;2023-12-20T05:52:19;6.80;99.90
63435;DHT22;68814;50.872;5.306;2023-12-20T05:54:44;6.80;99.90
63435;DHT22;68814;50.872;5.306;2023-12-20T05:57:10;6.70;99.90
63435;DHT22;68814;50.872;5.306;2023-12-20T05:59:35;6.60;99.90
63435;DHT22;68814;50.872;5.306;2023-12-20T06:02:03;6.50;99.90
63435;DHT22;68814;50.872;5.306;2023-12-20T06:04:29;6.40;99.90
63435;DHT22;68814;50.872;5.306;2023-12-20T06:06:54;6.30;99.90
63435;DHT22;68814;50.872;5.306;2023-12-20T06:09:22;6.20;99.90
63435;DHT22;68814;50.872;5.306;2023-12-20T06:11:48;6.10;99.90
63435;DHT22;68814;50.872;5.306;2023-12-20T06:14:14;6.10;99.90
63435;DHT22;68814;50.872;5.306;2023-12-20T06:16:39;6.10;99.90
63435;DHT22;68814;50.872;5.306;2023-12-20T06:19:05;6.00;99.90
63435;DHT22;68814;50.872;5.306;2023-12-20T06:21:31;6.10;99.90
63435;DHT22;68814;50.872;5.306;2023-12-20T06:23:58;6.00;99.90
63435;DHT22;68814;50.872;5.306;2023-12-20T06:26:23;6.10;99.90
63435;DHT22;68814;50.872;5.306;2023-12-20T06:28:49;6.10;99.90
63435;DHT22;68814;50.872;5.306;2023-12-20T06:31:15;6.10;99.90
63435;DHT22;68814;50.872;5.306;2023-12-20T06:33:41;6.10;99.90
63435;DHT22;68814;50.872;5.306;2023-12-20T06:36:07;6.10;99.90
63435;DHT22;68814;50.872;5.306;2023-12-20T06:38:34;6.10;99.90
63435;DHT22;68814;50.872;5.306;2023-12-20T06:41:00;6.20;99.90
63435;DHT22;68814;50.872;5.306;2023-12-20T06:43:26;6.20;99.90
63435;DHT22;68814;50.872;5.306;2023-12-20T06:45:51;6.30;99.90
63435;DHT22;68814;50.872;5.306;2023-12-20T06:48:17;6.30;99.90
63435;DHT22;68814;50.872;5.306;2023-12-20T06:50:43;6.20;99.90
63435;DHT22;68814;50.872;5.306;2023-12-20T06:53:08;6.20;99.90
63435;DHT22;68814;50.872;5.306;2023-12-20T06:55:38;6.20;99.90
63435;DHT22;68814;50.872;5.306;2023-12-20T06:58:03;6.10;99.90
63435;DHT22;68814;50.872;5.306;2023-12-20T07:00:30;6.10;99.90
63435;DHT22;68814;50.872;5.306;2023-12-20T07:02:56;6.10;99.90
63435;DHT22;68814;50.872;5.306;2023-12-20T07:05:22;5.90;99.90
63435;DHT22;68814;50.872;5.306;2023-12-20T07:07:48;5.70;99.90
63435;DHT22;68814;50.872;5.306;2023-12-20T07:10:14;5.70;99.90
63435;DHT22;68814;50.872;5.306;2023-12-20T07:12:39;5.60;99.90
63435;DHT22;68814;50.872;5.306;2023-12-20T07:15:05;5.50;99.90
63435;DHT22;68814;50.872;5.306;2023-12-20T07:17:33;5.50;99.90
63435;DHT22;68814;50.872;5.306;2023-12-20T07:19:59;5.50;99.90
63435;DHT22;68814;50.872;5.306;2023-12-20T07:22:29;5.50;99.90
63435;DHT22;68814;50.872;5.306;2023-12-20T07:24:57;5.40;99.90
63435;DHT22;68814;50.872;5.306;2023-12-20T07:27:23;5.40;99.90
63435;DHT22;68814;50.872;5.306;2023-12-20T07:29:48;5.40;99.90
63435;DHT22;68814;50.872;5.306;2023-12-20T07:32:14;5.40;99.90
63435;DHT22;68814;50.872;5.306;2023-12-20T07:34:40;5.30;99.90
63435;DHT22;68814;50.872;5.306;2023-12-20T07:37:05;5.30;99.90
63435;DHT22;68814;50.872;5.306;2023-12-20T07:39:31;5.30;99.90
63435;DHT22;68814;50.872;5.306;2023-12-20T07:41:57;5.30;99.90
63435;DHT22;68814;50.872;5.306;2023-12-20T07:44:22;5.20;99.90
63435;DHT22;68814;50.872;5.306;2023-12-20T07:46:48;5.20;99.90
63435;DHT22;68814;50.872;5.306;2023-12-20T07:49:14;5.20;99.90
63435;DHT22;68814;50.872;5.306;2023-12-20T07:51:39;5.20;99.90
63435;DHT22;68814;50.872;5.306;2023-12-20T07:54:05;5.20;99.90
63435;DHT22;68814;50.872;5.306;2023-12-20T07:56:33;5.10;99.90
63435;DHT22;68814;50.872;5.306;2023-12-20T07:58:59;5.10;99.90
63435;DHT22;68814;50.872;5.306;2023-12-20T08:01:25;5.10;99.90
63435;DHT22;68814;50.872;5.306;2023-12-20T08:03:50;5.10;99.90
63435;DHT22;68814;50.872;5.306;2023-12-20T08:06:16;5.10;99.90
63435;DHT22;68814;50.872;5.306;2023-12-20T08:08:42;5.10;99.90
63435;DHT22;68814;50.872;5.306;2023-12-20T08:11:12;5.10;99.90
63435;DHT22;68814;50.872;5.306;2023-12-20T08:13:38;5.10;99.90
63435;DHT22;68814;50.872;5.306;2023-12-20T08:16:06;5.10;99.90
63435;DHT22;68814;50.872;5.306;2023-12-20T08:18:32;5.00;99.90
63435;DHT22;68814;50.872;5.306;2023-12-20T08:21:00;5.00;99.90
63435;DHT22;68814;50.872;5.306;2023-12-20T08:23:31;5.10;99.90
63435;DHT22;68814;50.872;5.306;2023-12-20T08:25:56;5.10;99.90
63435;DHT22;68814;50.872;5.306;2023-12-20T08:28:24;5.10;99.90
63435;DHT22;68814;50.872;5.306;2023-12-20T08:30:50;5.10;99.90
63435;DHT22;68814;50.872;5.306;2023-12-20T08:33:20;5.10;99.90
63435;DHT22;68814;50.872;5.306;2023-12-20T08:35:45;5.10;99.90
63435;DHT22;68814;50.872;5.306;2023-12-20T08:38:11;5.20;99.90
63435;DHT22;68814;50.872;5.306;2023-12-20T08:40:37;5.20;99.90
63435;DHT22;68814;50.872;5.306;2023-12-20T08:43:03;5.20;99.90
63435;DHT22;68814;50.872;5.306;2023-12-20T08:45:29;5.20;99.90
63435;DHT22;68814;50.872;5.306;2023-12-20T08:47:55;5.20;99.90
63435;DHT22;68814;50.872;5.306;2023-12-20T08:50:20;5.20;99.90
63435;DHT22;68814;50.872;5.306;2023-12-20T08:52:46;5.30;99.90
63435;DHT22;68814;50.872;5.306;2023-12-20T08:55:12;5.30;99.90
63435;DHT22;68814;50.872;5.306;2023-12-20T08:57:40;5.30;99.90
63435;DHT22;68814;50.872;5.306;2023-12-20T09:00:06;5.30;99.90
63435;DHT22;68814;50.872;5.306;2023-12-20T09:02:35;5.40;99.90
63435;DHT22;68814;50.872;5.306;2023-12-20T09:05:02;5.50;99.90
63435;DHT22;68814;50.872;5.306;2023-12-20T09:07:38;5.50;99.90
63435;DHT22;68814;50.872;5.306;2023-12-20T09:10:04;5.60;99.90
63435;DHT22;68814;50.872;5.306;2023-12-20T09:12:29;5.60;99.90
63435;DHT22;68814;50.872;5.306;2023-12-20T09:15:01;5.60;99.90
63435;DHT22;68814;50.872;5.306;2023-12-20T09:17:28;5.60;99.90
63435;DHT22;68814;50.872;5.306;2023-12-20T09:19:54;5.70;99.90
63435;DHT22;68814;50.872;5.306;2023-12-20T09:22:19;5.70;99.90
63435;DHT22;68814;50.872;5.306;2023-12-20T09:24:45;5.70;99.90
63435;DHT22;68814;50.872;5.306;2023-12-20T09:27:11;5.80;99.90
63435;DHT22;68814;50.872;5.306;2023-12-20T09:29:36;5.80;99.90
63435;DHT22;68814;50.872;5.306;2023-12-20T09:32:02;5.90;99.90
63435;DHT22;68814;50.872;5.306;2023-12-20T09:34:28;5.90;99.90
63435;DHT22;68814;50.872;5.306;2023-12-20T09:36:54;5.90;99.90
63435;DHT22;68814;50.872;5.306;2023-12-20T09:39:22;6.00;99.90
63435;DHT22;68814;50.872;5.306;2023-12-20T09:42:00;6.00;99.90
63435;DHT22;68814;50.872;5.306;2023-12-20T09:44:27;6.10;99.90
63435;DHT22;68814;50.872;5.306;2023-12-20T09:46:53;6.10;99.90
63435;DHT22;68814;50.872;5.306;2023-12-20T09:49:20;6.20;99.90
63435;DHT22;68814;50.872;5.306;2023-12-20T09:51:46;6.20;99.90
63435;DHT22;68814;50.872;5.306;2023-12-20T09:54:14;6.30;99.90
63435;DHT22;68814;50.872;5.306;2023-12-20T09:56:41;6.30;99.90
63435;DHT22;68814;50.872;5.306;2023-12-20T09:59:06;6.40;99.90
63435;DHT22;68814;50.872;5.306;2023-12-20T10:01:34;6.40;99.90
63435;DHT22;68814;50.872;5.306;2023-12-20T10:04:01;6.50;99.90
63435;DHT22;68814;50.872;5.306;2023-12-20T10:06:32;6.50;99.90
63435;DHT22;68814;50.872;5.306;2023-12-20T10:08:58;6.60;99.90
63435;DHT22;68814;50.872;5.306;2023-12-20T10:11:25;6.60;99.90
63435;DHT22;68814;50.872;5.306;2023-12-20T10:13:50;6.70;99.90
63435;DHT22;68814;50.872;5.306;2023-12-20T10:16:16;6.80;99.90
63435;DHT22;68814;50.872;5.306;2023-12-20T10:18:42;6.80;99.90
63435;DHT22;68814;50.872;5.306;2023-12-20T10:21:07;6.90;99.90
63435;DHT22;68814;50.872;5.306;2023-12-20T10:23:35;6.90;99.90
63435;DHT22;68814;50.872;5.306;2023-12-20T10:26:02;7.00;99.90
63435;DHT22;68814;50.872;5.306;2023-12-20T10:28:33;7.20;99.90
63435;DHT22;68814;50.872;5.306;2023-12-20T10:30:59;7.30;99.90
63435;DHT22;68814;50.872;5.306;2023-12-20T10:33:26;7.30;99.90
63435;DHT22;68814;50.872;5.306;2023-12-20T10:35:53;7.40;99.90
63435;DHT22;68814;50.872;5.306;2023-12-20T10:38:19;7.40;99.90
63435;DHT22;68814;50.872;5.306;2023-12-20T10:40:46;7.40;99.90
63435;DHT22;68814;50.872;5.306;2023-12-20T10:43:12;7.40;99.90
63435;DHT22;68814;50.872;5.306;2023-12-20T10:45:38;7.40;99.90
63435;DHT22;68814;50.872;5.306;2023-12-20T10:48:04;7.40;99.90
63435;DHT22;68814;50.872;5.306;2023-12-20T10:50:31;7.40;99.90
63435;DHT22;68814;50.872;5.306;2023-12-20T10:52:57;7.30;99.90
63435;DHT22;68814;50.872;5.306;2023-12-20T10:55:24;7.30;99.90
63435;DHT22;68814;50.872;5.306;2023-12-20T10:57:56;7.40;99.90
63435;DHT22;68814;50.872;5.306;2023-12-20T11:00:25;7.30;99.90
63435;DHT22;68814;50.872;5.306;2023-12-20T11:02:51;7.30;99.90
63435;DHT22;68814;50.872;5.306;2023-12-20T11:05:42;7.40;99.90
63435;DHT22;68814;50.872;5.306;2023-12-20T11:08:20;7.40;99.90
63435;DHT22;68814;50.872;5.306;2023-12-20T11:11:34;7.40;99.90
63435;DHT22;68814;50.872;5.306;2023-12-20T11:14:07;7.40;99.90
63435;DHT22;68814;50.872;5.306;2023-12-20T11:16:37;7.50;99.90
63435;DHT22;68814;50.872;5.306;2023-12-20T11:19:06;7.50;99.90
63435;DHT22;68814;50.872;5.306;2023-12-20T11:21:32;7.50;99.90
63435;DHT22;68814;50.872;5.306;2023-12-20T11:23:59;7.60;99.90
63435;DHT22;68814;50.872;5.306;2023-12-20T11:26:29;7.60;99.90
63435;DHT22;68814;50.872;5.306;2023-12-20T11:29:34;7.70;99.90
63435;DHT22;68814;50.872;5.306;2023-12-20T11:32:04;7.70;99.90
63435;DHT22;68814;50.872;5.306;2023-12-20T11:34:51;7.70;99.90
63435;DHT22;68814;50.872;5.306;2023-12-20T11:37:19;7.80;99.90
63435;DHT22;68814;50.872;5.306;2023-12-20T11:39:45;7.80;99.90
63435;DHT22;68814;50.872;5.306;2023-12-20T11:42:11;7.80;99.90
63435;DHT22;68814;50.872;5.306;2023-12-20T11:44:37;7.80;99.90
63435;DHT22;68814;50.872;5.306;2023-12-20T11:47:03;7.80;99.90
63435;DHT22;68814;50.872;5.306;2023-12-20T11:49:29;7.80;99.90
63435;DHT22;68814;50.872;5.306;2023-12-20T11:51:56;7.80;99.90
63435;DHT22;68814;50.872;5.306;2023-12-20T11:54:22;7.80;99.90
63435;DHT22;68814;50.872;5.306;2023-12-20T11:56:48;7.90;99.90
63435;DHT22;68814;50.872;5.306;2023-12-20T11:59:14;7.90;99.90
63435;DHT22;68814;50.872;5.306;2023-12-20T12:01:47;7.90;99.90
63435;DHT22;68814;50.872;5.306;2023-12-20T12:04:13;7.90;99.90
63435;DHT22;68814;50.872;5.306;2023-12-20T12:06:39;7.90;99.90
63435;DHT22;68814;50.872;5.306;2023-12-20T12:09:05;7.90;99.90
63435;DHT22;68814;50.872;5.306;2023-12-20T12:11:30;8.00;99.90
63435;DHT22;68814;50.872;5.306;2023-12-20T12:13:56;8.00;99.90
63435;DHT22;68814;50.872;5.306;2023-12-20T12:16:22;8.00;99.90
63435;DHT22;68814;50.872;5.306;2023-12-20T12:18:58;8.10;99.90
63435;DHT22;68814;50.872;5.306;2023-12-20T12:21:24;8.10;99.90
63435;DHT22;68814;50.872;5.306;2023-12-20T12:23:50;8.10;99.90
63435;DHT22;68814;50.872;5.306;2023-12-20T12:26:15;8.10;99.90
63435;DHT22;68814;50.872;5.306;2023-12-20T12:28:42;8.10;99.90
63435;DHT22;68814;50.872;5.306;2023-12-20T12:31:09;8.10;99.90
63435;DHT22;68814;50.872;5.306;2023-12-20T12:33:39;8.10;99.90
63435;DHT22;68814;50.872;5.306;2023-12-20T12:36:07;8.10;99.90
63435;DHT22;68814;50.872;5.306;2023-12-20T12:38:36;8.10;99.90
63435;DHT22;68814;50.872;5.306;2023-12-20T12:41:04;8.10;99.90
63435;DHT22;68814;50.872;5.306;2023-12-20T12:43:31;8.00;99.90
63435;DHT22;68814;50.872;5.306;2023-12-20T12:45:56;8.00;99.90
63435;DHT22;68814;50.872;5.306;2023-12-20T12:48:24;8.00;99.90
63435;DHT22;68814;50.872;5.306;2023-12-20T12:50:50;8.00;99.90
63435;DHT22;68814;50.872;5.306;2023-12-20T12:53:18;7.90;99.90
63435;DHT22;68814;50.872;5.306;2023-12-20T12:55:46;7.90;99.90
63435;DHT22;68814;50.872;5.306;2023-12-20T12:58:12;8.00;99.90
63435;DHT22;68814;50.872;5.306;2023-12-20T13:00:37;8.00;99.90
63435;DHT22;68814;50.872;5.306;2023-12-20T13:03:03;8.00;99.90
63435;DHT22;68814;50.872;5.306;2023-12-20T13:05:29;8.00;99.90
63435;DHT22;68814;50.872;5.306;2023-12-20T13:07:55;8.00;99.90
63435;DHT22;68814;50.872;5.306;2023-12-20T13:10:21;8.10;99.90
63435;DHT22;68814;50.872;5.306;2023-12-20T13:12:47;8.10;99.90
63435;DHT22;68814;50.872;5.306;2023-12-20T13:15:13;8.10;99.90
63435;DHT22;68814;50.872;5.306;2023-12-20T13:17:38;8.10;99.90
63435;DHT22;68814;50.872;5.306;2023-12-20T13:20:05;8.20;99.90
63435;DHT22;68814;50.872;5.306;2023-12-20T13:22:32;8.20;99.90
63435;DHT22;68814;50.872;5.306;2023-12-20T13:24:57;8.20;99.90
63435;DHT22;68814;50.872;5.306;2023-12-20T13:27:23;8.30;99.90
63435;DHT22;68814;50.872;5.306;2023-12-20T13:29:49;8.40;99.90
63435;DHT22;68814;50.872;5.306;2023-12-20T13:32:15;8.50;99.90
63435;DHT22;68814;50.872;5.306;2023-12-20T13:34:40;8.50;99.90
63435;DHT22;68814;50.872;5.306;2023-12-20T13:37:06;8.50;99.90
63435;DHT22;68814;50.872;5.306;2023-12-20T13:39:32;8.50;99.90
63435;DHT22;68814;50.872;5.306;2023-12-20T13:41:58;8.60;99.90
63435;DHT22;68814;50.872;5.306;2023-12-20T13:44:24;8.50;99.90
63435;DHT22;68814;50.872;5.306;2023-12-20T13:46:49;8.50;99.90
63435;DHT22;68814;50.872;5.306;2023-12-20T13:49:15;8.40;99.90
63435;DHT22;68814;50.872;5.306;2023-12-20T13:51:41;8.40;99.90
63435;DHT22;68814;50.872;5.306;2023-12-20T13:54:07;8.30;99.90
63435;DHT22;68814;50.872;5.306;2023-12-20T13:56:34;8.30;99.90
63435;DHT22;68814;50.872;5.306;2023-12-20T13:59:00;8.30;99.90
63435;DHT22;68814;50.872;5.306;2023-12-20T14:01:38;8.20;99.90
63435;DHT22;68814;50.872;5.306;2023-12-20T14:04:04;8.20;99.90
63435;DHT22;68814;50.872;5.306;2023-12-20T14:07:00;8.20;99.90
63435;DHT22;68814;50.872;5.306;2023-12-20T14:09:26;8.20;99.90
63435;DHT22;68814;50.872;5.306;2023-12-20T14:15:06;8.10;99.90
63435;DHT22;68814;50.872;5.306;2023-12-20T14:17:39;8.10;99.90
63435;DHT22;68814;50.872;5.306;2023-12-20T14:20:06;8.10;99.90
63435;DHT22;68814;50.872;5.306;2023-12-20T14:22:44;8.10;99.90
63435;DHT22;68814;50.872;5.306;2023-12-20T14:25:12;8.10;99.90
63435;DHT22;68814;50.872;5.306;2023-12-20T14:27:38;8.10;99.90
63435;DHT22;68814;50.872;5.306;2023-12-20T14:30:06;8.10;99.90
63435;DHT22;68814;50.872;5.306;2023-12-20T14:32:34;8.10;99.90
63435;DHT22;68814;50.872;5.306;2023-12-20T14:35:00;8.10;99.90
63435;DHT22;68814;50.872;5.306;2023-12-20T14:37:25;8.10;99.90
63435;DHT22;68814;50.872;5.306;2023-12-20T14:39:52;8.10;99.90
63435;DHT22;68814;50.872;5.306;2023-12-20T14:42:17;8.10;99.90
63435;DHT22;68814;50.872;5.306;2023-12-20T14:44:43;8.10;99.90
63435;DHT22;68814;50.872;5.306;2023-12-20T14:47:09;8.10;99.90
63435;DHT22;68814;50.872;5.306;2023-12-20T14:49:35;8.10;99.90
63435;DHT22;68814;50.872;5.306;2023-12-20T14:52:05;8.10;99.90
63435;DHT22;68814;50.872;5.306;2023-12-20T14:54:30;8.10;99.90
63435;DHT22;68814;50.872;5.306;2023-12-20T14:56:57;8.10;99.90
63435;DHT22;68814;50.872;5.306;2023-12-20T14:59:23;8.10;99.90
63435;DHT22;68814;50.872;5.306;2023-12-20T15:01:49;8.20;99.90
63435;DHT22;68814;50.872;5.306;2023-12-20T15:04:15;8.10;99.90
63435;DHT22;68814;50.872;5.306;2023-12-20T15:06:40;8.20;99.90
63435;DHT22;68814;50.872;5.306;2023-12-20T15:09:06;8.20;99.90
63435;DHT22;68814;50.872;5.306;2023-12-20T15:11:36;8.20;99.90
63435;DHT22;68814;50.872;5.306;2023-12-20T15:14:01;8.20;99.90
63435;DHT22;68814;50.872;5.306;2023-12-20T15:16:33;8.20;99.90
63435;DHT22;68814;50.872;5.306;2023-12-20T15:19:00;8.20;99.90
63435;DHT22;68814;50.872;5.306;2023-12-20T15:21:26;8.20;99.90
63435;DHT22;68814;50.872;5.306;2023-12-20T15:23:57;8.20;99.90
63435;DHT22;68814;50.872;5.306;2023-12-20T15:26:34;8.20;99.90
63435;DHT22;68814;50.872;5.306;2023-12-20T15:29:02;8.20;99.90
63435;DHT22;68814;50.872;5.306;2023-12-20T15:31:28;8.30;99.90
63435;DHT22;68814;50.872;5.306;2023-12-20T15:33:53;8.30;99.90
63435;DHT22;68814;50.872;5.306;2023-12-20T15:36:19;8.30;99.90
63435;DHT22;68814;50.872;5.306;2023-12-20T15:38:45;8.30;99.90
63435;DHT22;68814;50.872;5.306;2023-12-20T15:41:21;8.30;99.90
63435;DHT22;68814;50.872;5.306;2023-12-20T15:43:58;8.30;99.90
63435;DHT22;68814;50.872;5.306;2023-12-20T15:46:24;8.30;99.90